createdAt,value
2016-11-12T00:01:14.454Z,1027.59
2016-11-12T00:06:14.396Z,1027.61
2016-11-12T00:11:14.342Z,1027.61
2016-11-12T00:16:14.284Z,1027.63
2016-11-12T00:21:14.231Z,1027.61
2016-11-12T00:26:14.176Z,1027.6
2016-11-12T00:31:14.117Z,1027.57
2016-11-12T00:36:14.062Z,1027.52
2016-11-12T00:41:14.007Z,1027.51
2016-11-12T00:46:13.950Z,1027.51
2016-11-12T00:51:13.902Z,1027.52
2016-11-12T00:56:13.845Z,1027.56
2016-11-12T01:01:13.781Z,1027.53
2016-11-12T01:06:13.723Z,1027.57
2016-11-12T01:11:13.667Z,1027.58
2016-11-12T01:16:13.607Z,1027.52
2016-11-12T01:21:13.547Z,1027.45
2016-11-12T01:26:13.489Z,1027.51
2016-11-12T01:31:13.430Z,1027.5
2016-11-12T01:36:13.373Z,1027.53
2016-11-12T01:41:13.309Z,1027.49
2016-11-12T01:46:13.251Z,1027.52
2016-11-12T01:51:13.191Z,1027.49
2016-11-12T01:56:13.137Z,1027.4
2016-11-12T02:01:13.071Z,1027.35
2016-11-12T02:06:13.011Z,1027.28
2016-11-12T02:11:12.951Z,1027.26
2016-11-12T02:16:12.891Z,1027.24
2016-11-12T02:21:12.831Z,1027.24
2016-11-12T02:26:12.776Z,1027.17
2016-11-12T02:31:12.712Z,1027.18
2016-11-12T02:36:12.660Z,1027.15
2016-11-12T02:41:12.597Z,1027.12
2016-11-12T02:46:12.530Z,1027.15
2016-11-12T02:51:12.471Z,1027.2
2016-11-12T02:56:12.413Z,1027.22
2016-11-12T03:01:12.348Z,1027.24
2016-11-12T03:06:12.287Z,1027.25
2016-11-12T03:11:12.227Z,1027.24
2016-11-12T03:16:12.165Z,1027.2
2016-11-12T03:21:12.103Z,1027.17
2016-11-12T03:26:12.044Z,1027.11
2016-11-12T03:31:11.982Z,1027.01
2016-11-12T03:36:11.920Z,1026.95
2016-11-12T03:41:11.858Z,1026.99
2016-11-12T03:46:11.796Z,1027.03
2016-11-12T03:51:11.736Z,1027.02
2016-11-12T03:56:11.672Z,1027.05
2016-11-12T04:01:11.612Z,1026.96
2016-11-12T04:06:11.550Z,1026.92
2016-11-12T04:11:11.486Z,1026.96
2016-11-12T04:16:11.427Z,1027.02
2016-11-12T04:21:11.361Z,1026.93
2016-11-12T04:26:11.297Z,1026.91
2016-11-12T04:31:11.233Z,1026.83
2016-11-12T04:36:11.171Z,1026.76
2016-11-12T04:41:11.104Z,1026.78
2016-11-12T04:46:11.042Z,1026.75
2016-11-12T04:51:10.980Z,1026.69
2016-11-12T04:56:10.919Z,1026.73
2016-11-12T05:01:10.855Z,1026.68
2016-11-12T05:06:10.790Z,1026.67
2016-11-12T05:11:10.727Z,1026.67
2016-11-12T05:16:10.666Z,1026.64
2016-11-12T05:21:10.599Z,1026.62
2016-11-12T05:26:10.537Z,1026.5
2016-11-12T05:31:10.473Z,1026.51
2016-11-12T05:36:10.412Z,1026.55
2016-11-12T05:41:10.346Z,1026.55
2016-11-12T05:46:10.282Z,1026.56
2016-11-12T05:51:10.218Z,1026.52
2016-11-12T05:56:10.154Z,1026.39
2016-11-12T06:01:10.092Z,1026.26
2016-11-12T06:06:10.026Z,1026.26
2016-11-12T06:11:09.971Z,1026.32
2016-11-12T06:16:09.898Z,1026.31
2016-11-12T06:21:09.832Z,1026.31
2016-11-12T06:26:09.768Z,1026.38
2016-11-12T06:31:09.702Z,1026.45
2016-11-12T06:36:09.638Z,1026.46
2016-11-12T06:41:09.572Z,1026.48
2016-11-12T06:46:09.507Z,1026.49
2016-11-12T06:51:09.442Z,1026.53
2016-11-12T06:56:09.374Z,1026.56
2016-11-12T07:01:09.310Z,1026.43
2016-11-12T07:06:09.247Z,1026.31
2016-11-12T07:11:09.181Z,1026.35
2016-11-12T07:16:09.125Z,1026.32
2016-11-12T07:21:09.062Z,1026.37
2016-11-12T07:26:08.992Z,1026.39
2016-11-12T07:31:08.930Z,1026.37
2016-11-12T07:36:08.868Z,1026.37
2016-11-12T07:41:08.807Z,1026.33
2016-11-12T07:46:08.750Z,1026.42
2016-11-12T07:51:08.687Z,1026.44
2016-11-12T07:56:08.629Z,1026.37
2016-11-12T08:01:08.571Z,1026.4
2016-11-12T08:06:08.513Z,1026.36
2016-11-12T08:11:08.455Z,1026.39
2016-11-12T08:16:08.395Z,1026.35
2016-11-12T08:21:08.343Z,1026.27
2016-11-12T08:26:08.277Z,1026.24
2016-11-12T08:31:08.217Z,1026.22
2016-11-12T08:36:08.157Z,1026.26
2016-11-12T08:41:08.099Z,1026.31
2016-11-12T08:46:08.041Z,1026.22
2016-11-12T08:51:07.984Z,1026.19
2016-11-12T08:56:07.925Z,1026.23
2016-11-12T09:01:07.869Z,1026.2
2016-11-12T09:06:07.817Z,1026.16
2016-11-12T09:11:07.758Z,1026.24
2016-11-12T09:16:07.704Z,1026.23
2016-11-12T09:21:07.644Z,1026.24
2016-11-12T09:26:07.591Z,1026.27
2016-11-12T09:31:07.530Z,1026.28
2016-11-12T09:36:07.472Z,1026.16
2016-11-12T09:41:07.416Z,1026.05
2016-11-12T09:46:07.358Z,1026.05
2016-11-12T09:51:07.300Z,1026.06
2016-11-12T09:56:07.242Z,1026.03
2016-11-12T10:01:07.186Z,1026.14
2016-11-12T10:06:07.132Z,1026.23
2016-11-12T10:11:07.081Z,1026.23
2016-11-12T10:16:07.015Z,1026.34
2016-11-12T10:21:06.961Z,1026.25
2016-11-12T10:26:06.906Z,1026.18
2016-11-12T10:31:06.849Z,1026.1
2016-11-12T10:36:06.795Z,1026.14
2016-11-12T10:41:06.733Z,1026.16
2016-11-12T10:46:06.675Z,1026.01
2016-11-12T10:51:06.618Z,1026.04
2016-11-12T10:56:06.561Z,1025.9
2016-11-12T11:01:06.503Z,1025.83
2016-11-12T11:06:06.447Z,1025.78
2016-11-12T11:11:06.394Z,1025.83
2016-11-12T11:16:06.339Z,1025.84
2016-11-12T11:21:06.273Z,1025.86
2016-11-12T11:26:06.217Z,1025.82
2016-11-12T11:31:06.161Z,1025.78
2016-11-12T11:36:06.106Z,1025.71
2016-11-12T11:41:06.044Z,1025.66
2016-11-12T11:46:05.987Z,1025.62
2016-11-12T11:51:05.931Z,1025.57
2016-11-12T11:56:05.872Z,1025.53
2016-11-12T12:01:05.866Z,1025.53
2016-11-12T12:06:05.765Z,1025.39
2016-11-12T12:11:05.695Z,1025.38
2016-11-12T12:16:05.638Z,1025.42
2016-11-12T12:21:05.578Z,1025.43
2016-11-12T12:26:05.524Z,1025.39
2016-11-12T12:31:05.472Z,1025.44
2016-11-12T12:36:05.413Z,1025.38
2016-11-12T12:41:05.356Z,1025.28
2016-11-12T12:46:05.300Z,1025.26
2016-11-12T12:51:05.245Z,1025.19
2016-11-12T12:56:05.188Z,1025.12
2016-11-12T13:01:05.131Z,1025.04
2016-11-12T13:06:05.070Z,1025.03
2016-11-12T13:11:05.014Z,1025.03
2016-11-12T13:16:04.952Z,1024.99
2016-11-12T13:21:04.900Z,1024.93
2016-11-12T13:26:04.840Z,1024.84
2016-11-12T13:31:04.780Z,1024.78
2016-11-12T13:36:04.726Z,1024.77
2016-11-12T13:41:04.661Z,1024.79
2016-11-12T13:46:04.603Z,1024.72
2016-11-12T13:51:04.545Z,1024.63
2016-11-12T13:56:04.487Z,1024.62
2016-11-12T14:01:04.431Z,1024.67
2016-11-12T14:06:04.375Z,1024.66
2016-11-12T14:11:04.314Z,1024.69
2016-11-12T14:16:04.257Z,1024.66
2016-11-12T14:21:04.205Z,1024.64
2016-11-12T14:26:04.146Z,1024.57
2016-11-12T14:31:04.087Z,1024.52
2016-11-12T14:36:04.029Z,1024.51
2016-11-12T14:41:03.972Z,1024.63
2016-11-12T14:46:03.914Z,1024.68
2016-11-12T14:51:03.860Z,1024.62
2016-11-12T14:56:03.802Z,1024.53
2016-11-12T15:01:03.746Z,1024.52
2016-11-12T15:06:03.694Z,1024.45
2016-11-12T15:11:03.635Z,1024.46
2016-11-12T15:16:03.580Z,1024.4
2016-11-12T15:21:03.526Z,1024.38
2016-11-12T15:26:03.471Z,1024.37
2016-11-12T15:31:03.415Z,1024.27
2016-11-12T15:36:03.359Z,1024.3
2016-11-12T15:41:03.308Z,1024.32
2016-11-12T15:46:03.249Z,1024.35
2016-11-12T15:51:03.192Z,1024.29
2016-11-12T15:56:03.137Z,1024.37
2016-11-12T16:01:03.081Z,1024.36
2016-11-12T16:06:03.026Z,1024.33
2016-11-12T16:11:02.971Z,1024.35
2016-11-12T16:16:02.922Z,1024.39
2016-11-12T16:21:02.864Z,1024.41
2016-11-12T16:26:02.809Z,1024.29
2016-11-12T16:31:02.753Z,1024.25
2016-11-12T16:36:02.696Z,1024.25
2016-11-12T16:41:02.651Z,1024.27
2016-11-12T16:46:02.593Z,1024.33
2016-11-12T16:51:02.541Z,1024.33
2016-11-12T16:56:02.487Z,1024.36
2016-11-12T17:01:02.435Z,1024.42
2016-11-12T17:06:02.380Z,1024.45
2016-11-12T17:11:02.330Z,1024.48
2016-11-12T17:16:02.274Z,1024.53
2016-11-12T17:21:02.222Z,1024.56
2016-11-12T17:26:02.172Z,1024.5
2016-11-12T17:31:02.116Z,1024.5
2016-11-12T17:36:02.065Z,1024.53
2016-11-12T17:41:02.016Z,1024.49
2016-11-12T17:46:01.963Z,1024.58
2016-11-12T17:51:01.913Z,1024.64
2016-11-12T17:56:02.221Z,1024.65
2016-11-12T18:01:01.810Z,1024.79
2016-11-12T18:06:01.759Z,1024.75
2016-11-12T18:11:01.708Z,1024.71
2016-11-12T18:16:01.660Z,1024.65
2016-11-12T18:21:01.608Z,1024.62
2016-11-12T18:26:01.558Z,1024.56
2016-11-12T18:31:01.505Z,1024.5
2016-11-12T18:36:01.455Z,1024.46
2016-11-12T18:41:01.402Z,1024.48
2016-11-12T18:46:01.349Z,1024.46
2016-11-12T18:51:01.303Z,1024.49
2016-11-12T18:56:01.248Z,1024.48
2016-11-12T19:01:01.203Z,1024.47
2016-11-12T19:06:01.148Z,1024.45
2016-11-12T19:11:01.097Z,1024.5
2016-11-12T19:16:01.047Z,1024.55
2016-11-12T19:21:00.991Z,1024.63
2016-11-12T19:26:00.943Z,1024.64
2016-11-12T19:31:00.888Z,1024.61
2016-11-12T19:36:00.837Z,1024.67
2016-11-12T19:41:00.793Z,1024.65
2016-11-12T19:46:00.737Z,1024.69
2016-11-12T19:51:00.683Z,1024.72
2016-11-12T19:56:00.631Z,1024.7
2016-11-12T20:01:00.579Z,1024.75
2016-11-12T20:06:00.529Z,1024.7
2016-11-12T20:11:00.476Z,1024.6
2016-11-12T20:16:00.426Z,1024.63
2016-11-12T20:21:00.374Z,1024.64
2016-11-12T20:26:00.324Z,1024.61
2016-11-12T20:31:00.276Z,1024.69
2016-11-12T20:36:00.220Z,1024.76
2016-11-12T20:41:00.171Z,1024.79
2016-11-12T20:46:00.120Z,1024.86
2016-11-12T20:51:00.068Z,1024.96
2016-11-12T20:56:00.015Z,1024.89
2016-11-12T21:00:59.970Z,1024.91
2016-11-12T21:05:59.916Z,1024.85
2016-11-12T21:10:59.866Z,1024.84
2016-11-12T21:15:59.813Z,1024.8
2016-11-12T21:20:59.765Z,1024.86
2016-11-12T21:25:59.715Z,1024.86
2016-11-12T21:30:59.667Z,1024.91
2016-11-12T21:35:59.624Z,1024.9
2016-11-12T21:40:59.569Z,1024.87
2016-11-12T21:45:59.518Z,1024.78
2016-11-12T21:50:59.473Z,1024.7
2016-11-12T21:55:59.421Z,1024.77
2016-11-12T22:00:59.374Z,1024.84
2016-11-12T22:05:59.320Z,1024.78
2016-11-12T22:10:59.272Z,1024.76
2016-11-12T22:15:59.221Z,1024.68
2016-11-12T22:20:59.170Z,1024.68
2016-11-12T22:25:59.116Z,1024.63
2016-11-12T22:30:59.066Z,1024.59
2016-11-12T22:35:59.014Z,1024.62
2016-11-12T22:40:58.964Z,1024.54
2016-11-12T22:45:58.913Z,1024.5
2016-11-12T22:50:58.862Z,1024.51
2016-11-12T22:55:58.812Z,1024.52
2016-11-12T23:00:58.759Z,1024.55
2016-11-12T23:05:58.706Z,1024.48
2016-11-12T23:10:58.658Z,1024.5
2016-11-12T23:15:58.603Z,1024.51
2016-11-12T23:20:58.553Z,1024.48
2016-11-12T23:25:58.501Z,1024.42
2016-11-12T23:30:58.450Z,1024.41
2016-11-12T23:35:58.398Z,1024.26
2016-11-12T23:40:58.345Z,1024.31
2016-11-12T23:45:58.290Z,1024.35
2016-11-12T23:50:58.237Z,1024.44
2016-11-12T23:55:58.182Z,1024.44
